LiveATC.Net - Listen to live air traffic control over the Internet!


ICAO: KYIP  IATA: YIP   Airport: Willow Run Airport
City: Detroit   State/Province: Michigan
Country: United States   Continent: North America
KYIP METAR Weather: KYIP 220753Z 09003KT 1/2SM R05R/2600V3000FT -RA FG VV003 04/04 A2994 RMK AO2 SLP142 P0002 T00390039
KYIP Flight Activity (FlightAware)
KYIP Airport Info   (AirNav) (iFlightPlanner)
KYIP VFR Sectional Chart   (iFlightPlanner) 
KYIP IFR Low Chart   (iFlightPlanner) 
KYIP Gnd/Twr/App
Feed Status: DOWN
Last heard on: 2018-01-22 08:18:03 (0 days 0 hours 6 minutes ago)
KYIP Gnd/Twr/App Audio Archives
FacilityFrequency
Detroit Approach/Departure118.950
Willow Run Ground121.750
Willow Run Tower125.275


NOTICE

Unauthorized use prohibited. See LiveATC.net Terms of Service


Find LiveATC Audio Streams


Airport/ARTCC Code

Frequency Search
(e.g., 124.400, 128.75)
Site-wide search
 


Browse LiveATC Feeds
LiveATC Coverage Map
Top 50 LiveATC Feeds
Bad Weather Areas

LiveATC FAQ
Offer a LiveATC Feed
Contact LiveATC.net
Press Inquiries

LiveATC on iPhone
LiveATC on Android

Windows Phone
Windows 8/10

LiveATC Mobile
(Mobile browser)

ATC Audio Archives
Interesting Recordings

LiveATC Forums


Home Page
About LiveATC.net
Make a Donation
Terms of Use
Privacy Policy

Canadian Air Freqs

AIRMETs/SIGMETs

FAA Airport Status
Nat'l Airspace Status
Arrival Demand Charts


Server Software By:
Icecast.org
Liquidsoap